Columbus, North Dakota
Current Conditions -  °F | °C
As of 4:00 AM on Saturday 25 Oct 2014 (Local Time) from CYEN Reporting Station
Few Clouds Few Clouds  
Wind Chill: 25°   Ceiling: Unl
Heat Index: 32°   Visibility: 15mi
Dew Point: 28°   Wind: 8mph
Humidity: 87%   Direction: 270°W
Pressure: 30.07"   Gusts: NA
Location:  48.9°N, 102.78°W
Report Text: CYEN 250900Z 27007KT 15SM FEW240 00/M02 A3007 RMK CI1 SLP201
Loading
Personal Weather Stations






























Interactive Weather Map
Tropical Storm Tracking
New forecast layout! Learn more

10-Day Weather Forecast

Advertisements
Track Severe Weather on mobile